Time;durP1;ratioP1;P1;durP2;ratioP2;P2;SDS_P1;SDS_P2;PMS_P1;PMS_P2;Temp;Humidity;BMP_temperature;BMP_pressure;BME280_temperature;BME280_humidity;BME280_pressure;Samples;Min_cycle;Max_cycle;Signal;HPM_P1;HPM_P2
2022/07/20 00:01:02;;;;;;;18.33;9.35;;;;;;;24.58;75.45;100222.94;6184393;23;20032;-83
2022/07/20 00:03:28;;;;;;;18.95;10.45;;;;;;;24.51;75.95;100233.66;6184253;23;20416;-83
2022/07/20 00:05:54;;;;;;;16.08;9.82;;;;;;;24.56;75.86;100229.53;6183812;23;20084;-83
2022/07/20 00:11:19;;;;;;;17.40;9.63;;;;;;;24.60;75.95;100230.78;6184171;23;19997;-83
2022/07/20 00:11:19;;;;;;;19.52;9.57;;;;;;;24.74;75.91;100227.97;6184075;23;20032;-83
2022/07/20 00:13:46;;;;;;;19.10;9.60;;;;;;;24.45;76.95;100221.00;6161154;23;19997;-83
2022/07/20 00:16:12;;;;;;;15.77;9.40;;;;;;;24.41;77.51;100219.75;6184332;23;20424;-83
2022/07/20 00:18:37;;;;;;;16.58;10.05;;;;;;;24.37;77.57;100213.13;6157754;23;20008;-83
2022/07/20 00:21:03;;;;;;;15.80;8.88;;;;;;;24.43;77.40;100216.88;6157535;23;20005;-83
2022/07/20 00:23:28;;;;;;;19.52;9.85;;;;;;;24.37;77.68;100210.44;6182355;23;20025;-83
2022/07/20 00:25:54;;;;;;;19.13;9.90;;;;;;;24.48;76.60;100217.91;6184070;23;20012;-82
2022/07/20 00:28:19;;;;;;;16.67;9.38;;;;;;;24.44;77.46;100207.78;6157601;23;20032;-83
2022/07/20 00:30:46;;;;;;;14.00;9.15;;;;;;;24.63;78.19;100219.69;6184062;23;20008;-83
2022/07/20 00:33:12;;;;;;;17.77;9.57;;;;;;;24.71;76.14;100227.53;6184048;23;20028;-83
2022/07/20 00:35:37;;;;;;;20.98;9.50;;;;;;;24.66;77.34;100235.34;6183793;23;20428;-82
2022/07/20 00:38:03;;;;;;;19.98;9.93;;;;;;;24.60;76.74;100236.16;6183879;23;20430;-82
2022/07/20 00:40:28;;;;;;;11.82;8.52;;;;;;;24.58;76.96;100235.53;6183925;23;20012;-82
2022/07/20 00:42:53;;;;;;;17.67;8.90;;;;;;;24.47;77.68;100237.75;6183675;23;20420;-83
2022/07/20 00:45:19;;;;;;;16.17;9.50;;;;;;;24.59;77.29;100239.91;6184182;23;20312;-83
2022/07/20 00:47:44;;;;;;;16.02;9.05;;;;;;;24.68;78.28;100254.78;6157550;23;20005;-83
2022/07/20 00:50:10;;;;;;;18.33;8.80;;;;;;;24.42;78.19;100255.47;6183438;23;20009;-83
2022/07/20 00:52:35;;;;;;;18.48;10.10;;;;;;;24.39;78.31;100269.25;6183904;23;20411;-83
2022/07/20 00:55:01;;;;;;;17.70;8.02;;;;;;;24.50;78.23;100266.03;6182468;23;20009;-83
2022/07/20 00:57:26;;;;;;;17.65;9.73;;;;;;;24.41;78.61;100276.09;6183684;23;20132;-83
2022/07/20 00:59:51;;;;;;;12.75;8.55;;;;;;;24.45;78.48;100268.50;6157405;23;20023;-83
2022/07/20 01:02:17;;;;;;;18.05;8.93;;;;;;;24.54;78.25;100273.50;6183929;23;20001;-83
2022/07/20 01:04:42;;;;;;;15.00;8.70;;;;;;;24.52;78.03;100256.78;6183484;23;20013;-82
2022/07/20 01:07:07;;;;;;;18.58;8.30;;;;;;;24.51;77.61;100270.41;6184239;23;20009;-83
2022/07/20 01:09:33;;;;;;;18.05;9.73;;;;;;;24.35;79.13;100271.53;6183649;23;20431;-83
2022/07/20 01:11:58;;;;;;;14.00;9.13;;;;;;;24.17;80.10;100271.19;6183660;23;20001;-83
2022/07/20 01:14:24;;;;;;;17.08;9.00;;;;;;;24.30;79.35;100265.94;6184471;23;20001;-82
2022/07/20 01:16:49;;;;;;;16.42;8.52;;;;;;;24.11;80.37;100260.25;6159267;23;20024;-83
2022/07/20 01:19:14;;;;;;;13.70;8.80;;;;;;;24.30;81.16;100268.59;6185271;23;20080;-82
2022/07/20 01:21:40;;;;;;;16.25;8.23;;;;;;;24.06;80.85;100265.38;6185634;23;20001;-83
2022/07/20 01:24:09;;;;;;;16.30;9.10;;;;;;;24.26;80.28;100273.53;6185882;23;20012;-83
2022/07/20 01:26:37;;;;;;;17.27;9.02;;;;;;;24.08;80.94;100271.34;6159295;23;20084;-82
2022/07/20 01:29:02;;;;;;;12.90;8.35;;;;;;;24.19;81.62;100271.84;6185678;23;20581;-83
2022/07/20 01:31:28;;;;;;;15.48;8.25;;;;;;;24.14;80.47;100270.56;6185871;23;20005;-83
2022/07/20 01:33:53;;;;;;;12.95;8.23;;;;;;;24.12;81.21;100264.56;6158842;23;20010;-82
2022/07/20 01:36:18;;;;;;;17.70;8.77;;;;;;;24.08;80.20;100260.63;6185184;23;20001;-83
2022/07/20 01:38:44;;;;;;;13.85;7.45;;;;;;;23.97;81.39;100252.28;6159403;23;20079;-82
2022/07/20 01:41:09;;;;;;;14.25;8.27;;;;;;;23.99;81.24;100267.16;6185850;23;20001;-82
2022/07/20 01:43:34;;;;;;;10.93;7.43;;;;;;;23.86;82.32;100269.75;6185373;23;20015;-82
2022/07/20 01:46:00;;;;;;;15.48;8.35;;;;;;;23.93;82.53;100262.56;6185179;23;20001;-82
2022/07/20 01:48:25;;;;;;;11.25;7.10;;;;;;;24.03;81.99;100265.78;6185361;23;20008;-82
2022/07/20 01:50:51;;;;;;;14.80;7.55;;;;;;;24.05;81.70;100266.41;6184891;23;20085;-82
2022/07/20 01:53:16;;;;;;;15.15;7.85;;;;;;;23.99;82.74;100253.75;6185500;23;20316;-82
2022/07/20 01:55:41;;;;;;;11.07;6.38;;;;;;;24.07;82.01;100259.00;6185799;23;20335;-82
2022/07/20 01:58:07;;;;;;;15.20;6.93;;;;;;;23.95;81.72;100264.06;6185365;23;20027;-82
2022/07/20 02:00:32;;;;;;;11.98;6.68;;;;;;;23.95;82.16;100256.03;6184768;23;20072;-84
2022/07/20 02:02:57;;;;;;;15.07;6.90;;;;;;;23.94;82.77;100254.34;6185263;23;20005;-82
2022/07/20 02:05:23;;;;;;;13.27;6.72;;;;;;;23.86;82.42;100240.28;6158819;23;20003;-82
2022/07/20 02:07:48;;;;;;;12.18;7.15;;;;;;;24.01;82.49;100249.00;6185725;23;20001;-81
2022/07/20 02:10:15;;;;;;;12.55;6.55;;;;;;;23.97;82.70;100250.44;6184891;23;20439;-82
2022/07/20 02:12:40;;;;;;;13.25;6.90;;;;;;;23.95;82.85;100249.81;6185093;23;20005;-83
2022/07/20 02:15:08;;;;;;;12.13;6.68;;;;;;;24.04;82.42;100243.28;6158968;23;20005;-83
2022/07/20 02:17:33;;;;;;;15.73;6.50;;;;;;;24.06;82.09;100246.59;6185334;23;20001;-81
2022/07/20 02:19:59;;;;;;;17.60;7.13;;;;;;;24.18;81.04;100243.38;6185084;23;20012;-81
2022/07/20 02:22:25;;;;;;;12.05;6.15;;;;;;;24.07;81.85;100234.84;6185272;23;20005;-83
2022/07/20 02:24:50;;;;;;;14.73;7.13;;;;;;;24.11;81.12;100241.47;6183900;23;20371;-83
2022/07/20 02:27:15;;;;;;;13.60;6.53;;;;;;;24.13;81.40;100242.09;6185076;23;20420;-81
2022/07/20 02:29:41;;;;;;;12.68;6.13;;;;;;;24.28;80.58;100236.59;6184498;23;20001;-82
2022/07/20 02:32:06;;;;;;;15.57;6.28;;;;;;;24.32;80.11;100237.84;6185110;23;20518;-81
2022/07/20 02:34:32;;;;;;;11.90;6.00;;;;;;;24.27;79.99;100234.13;6158817;23;20032;-82
2022/07/20 02:36:57;;;;;;;11.07;6.03;;;;;;;24.31;79.88;100248.81;6185161;23;20028;-82
2022/07/20 02:39:22;;;;;;;13.07;5.80;;;;;;;24.13;80.24;100247.47;6184467;23;20008;-83
2022/07/20 02:41:48;;;;;;;11.90;5.60;;;;;;;24.04;80.76;100247.81;6185046;23;20012;-82
2022/07/20 02:44:13;;;;;;;11.65;5.57;;;;;;;24.21;79.70;100242.94;6184968;23;20004;-82
2022/07/20 02:46:39;;;;;;;14.18;6.43;;;;;;;24.19;80.71;100245.00;6185080;23;20336;-83
2022/07/20 02:49:06;;;;;;;14.55;6.68;;;;;;;23.86;80.70;100251.00;6184966;23;20001;-82
2022/07/20 02:51:32;;;;;;;13.90;6.03;;;;;;;24.07;80.21;100256.31;6184742;23;20005;-82
2022/07/20 02:53:57;;;;;;;13.40;6.30;;;;;;;24.14;79.65;100262.53;6184366;23;20064;-82
2022/07/20 02:56:22;;;;;;;11.98;5.97;;;;;;;24.07;78.85;100259.00;6184580;23;20009;-82
2022/07/20 02:58:48;;;;;;;16.42;6.95;;;;;;;24.11;78.86;100256.72;6183554;23;20001;-83
2022/07/20 03:01:13;;;;;;;12.18;6.18;;;;;;;24.08;78.64;100246.41;6184888;23;20332;-83
2022/07/20 03:03:38;;;;;;;9.27;4.65;;;;;;;23.91;79.48;100248.53;6184763;23;20737;-82
2022/07/20 03:06:04;;;;;;;11.07;6.05;;;;;;;23.96;78.82;100251.47;6184764;23;20450;-84
2022/07/20 03:08:29;;;;;;;18.33;6.63;;;;;;;24.01;78.79;100259.75;6184271;23;20048;-83
2022/07/20 03:10:54;;;;;;;10.10;6.25;;;;;;;24.07;78.21;100264.34;6184656;23;20103;-82
2022/07/20 03:13:20;;;;;;;11.52;6.85;;;;;;;23.97;78.85;100266.53;6184677;23;20016;-82
2022/07/20 03:15:45;;;;;;;8.45;5.22;;;;;;;24.03;79.21;100279.19;6184863;23;20012;-83
2022/07/20 03:18:10;;;;;;;12.60;6.28;;;;;;;23.90;79.57;100279.06;6158403;23;20001;-82
2022/07/20 03:20:36;;;;;;;12.15;6.70;;;;;;;23.92;79.60;100282.38;6184648;23;20416;-82
2022/07/20 03:23:03;;;;;;;8.98;5.85;;;;;;;24.00;79.88;100284.91;6184302;23;20001;-82
2022/07/20 03:25:28;;;;;;;12.25;5.60;;;;;;;24.03;79.00;100284.53;6184523;23;20032;-83
2022/07/20 03:27:56;;;;;;;9.75;6.30;;;;;;;24.05;80.23;100303.09;6184436;23;20080;-81
2022/07/20 03:30:22;;;;;;;12.32;5.47;;;;;;;23.84;79.93;100298.63;6184469;23;20084;-82
2022/07/20 03:32:47;;;;;;;10.00;5.25;;;;;;;23.86;79.64;100293.91;6184815;23;20005;-82
2022/07/20 03:35:13;;;;;;;11.32;5.75;;;;;;;23.86;80.88;100300.06;6184596;23;20064;-83
2022/07/20 03:37:39;;;;;;;10.77;5.35;;;;;;;23.84;80.29;100301.31;6183918;23;20005;-82
2022/07/20 03:40:05;;;;;;;8.95;5.72;;;;;;;23.87;79.88;100311.63;6184387;23;20076;-82
2022/07/20 03:42:32;;;;;;;14.93;6.10;;;;;;;23.88;80.41;100318.66;6184361;23;20366;-82
2022/07/20 03:44:57;;;;;;;10.85;6.28;;;;;;;23.65;81.67;100324.19;6184340;23;20092;-82
2022/07/20 03:47:23;;;;;;;8.60;5.10;;;;;;;23.84;81.84;100323.56;6184560;23;20028;-82
2022/07/20 03:49:50;;;;;;;10.88;5.40;;;;;;;23.86;79.98;100334.13;6184322;23;20005;-82
2022/07/20 03:52:16;;;;;;;10.35;5.63;;;;;;;23.53;81.70;100327.38;6184194;23;20032;-82
2022/07/20 03:54:42;;;;;;;10.10;5.70;;;;;;;23.82;81.15;100330.97;6181847;23;20052;-83
2022/07/20 03:57:07;;;;;;;10.73;6.15;;;;;;;23.80;80.88;100340.25;6184160;23;20500;-83
2022/07/20 03:59:33;;;;;;;9.25;5.28;;;;;;;23.87;80.41;100338.44;6184416;23;20001;-81
2022/07/20 04:01:59;;;;;;;10.52;5.72;;;;;;;23.90;80.96;100338.06;6184236;23;20036;-82
2022/07/20 04:04:24;;;;;;;11.32;5.78;;;;;;;23.99;79.89;100334.19;6184271;23;20012;-82
2022/07/20 04:06:49;;;;;;;12.73;6.05;;;;;;;24.05;79.60;100330.78;6184515;23;20036;-83
2022/07/20 04:09:43;;;;;;;13.13;5.35;;;;;;;24.14;80.34;100336.81;6183795;23;20021;-84
2022/07/20 04:12:00;;;;;;;13.75;6.05;;;;;;;24.19;79.58;100333.53;6184011;23;20005;-83
2022/07/20 04:14:26;;;;;;;12.50;6.00;;;;;;;24.12;79.48;100345.03;6184065;23;19997;-83
2022/07/20 04:16:51;;;;;;;15.02;6.47;;;;;;;23.99;80.43;100342.25;6184202;23;20005;-83
2022/07/20 04:19:16;;;;;;;9.35;5.95;;;;;;;24.05;80.43;100337.97;6184006;23;20008;-82
2022/07/20 04:21:42;;;;;;;12.15;5.90;;;;;;;23.99;80.63;100336.88;6184169;23;20023;-82
2022/07/20 04:24:07;;;;;;;8.48;5.85;;;;;;;23.93;80.51;100329.63;6183623;23;20344;-83
2022/07/20 04:26:32;;;;;;;11.88;6.65;;;;;;;23.81;80.31;100339.22;6184162;23;20332;-82
2022/07/20 04:28:58;;;;;;;18.83;6.80;;;;;;;23.87;81.07;100341.13;6183615;23;20084;-82
2022/07/20 04:31:23;;;;;;;13.63;6.45;;;;;;;23.99;80.69;100338.75;6157792;23;20035;-83
2022/07/20 04:33:48;;;;;;;10.60;5.82;;;;;;;23.94;79.04;100340.16;6184169;23;20005;-82
2022/07/20 04:36:14;;;;;;;10.00;5.72;;;;;;;23.85;79.28;100340.47;6184035;23;20005;-82
2022/07/20 04:38:39;;;;;;;12.38;5.82;;;;;;;23.85;78.96;100340.47;6183059;23;20032;-82
2022/07/20 04:41:04;;;;;;;8.70;5.20;;;;;;;23.94;79.16;100340.16;6184315;23;20008;-82
2022/07/20 04:43:29;;;;;;;9.43;5.53;;;;;;;23.94;79.58;100339.34;6182466;23;20005;-82
2022/07/20 04:45:55;;;;;;;8.13;6.05;;;;;;;23.95;78.92;100340.97;6183021;23;20005;-82
2022/07/20 04:48:20;;;;;;;9.25;5.40;;;;;;;23.94;78.44;100352.75;6183696;23;20000;-82
2022/07/20 04:50:45;;;;;;;13.18;6.63;;;;;;;23.72;78.88;100351.91;6184208;23;20013;-81
2022/07/20 04:53:11;;;;;;;9.60;6.20;;;;;;;23.83;77.68;100359.44;6184172;23;20416;-81
2022/07/20 04:55:36;;;;;;;10.05;5.72;;;;;;;23.85;76.99;100359.25;6184189;23;20004;-81
2022/07/20 04:58:01;;;;;;;10.18;5.97;;;;;;;23.84;76.52;100354.94;6184214;23;20414;-82
2022/07/20 05:00:27;;;;;;;10.27;5.78;;;;;;;23.86;76.86;100359.06;6158020;23;20009;-82
2022/07/20 05:02:52;;;;;;;8.55;5.22;;;;;;;23.90;76.11;100367.56;6185073;23;20419;-82
2022/07/20 05:05:18;;;;;;;11.10;5.63;;;;;;;23.82;75.78;100378.41;6158349;23;20005;-82
2022/07/20 05:07:43;;;;;;;14.75;5.90;;;;;;;23.76;75.68;100380.81;6184267;23;20009;-81
2022/07/20 05:10:08;;;;;;;13.07;5.40;;;;;;;23.76;75.70;100382.66;6184735;23;20005;-82
2022/07/20 05:12:34;;;;;;;9.48;5.90;;;;;;;23.84;75.46;100379.06;6185009;23;20024;-82
2022/07/20 05:14:59;;;;;;;11.27;5.35;;;;;;;23.83;75.70;100385.44;6184736;23;20005;-82
2022/07/20 05:17:24;;;;;;;9.40;5.47;;;;;;;23.97;74.98;100381.00;6184962;23;20001;-82
2022/07/20 05:19:50;;;;;;;11.88;5.15;;;;;;;23.69;75.75;100395.16;6183345;23;20001;-82
2022/07/20 05:22:15;;;;;;;11.55;5.88;;;;;;;23.84;75.03;100387.09;6185187;23;20331;-81
2022/07/20 05:24:40;;;;;;;8.93;5.47;;;;;;;23.80;74.27;100397.38;6158266;23;20332;-81
2022/07/20 05:27:06;;;;;;;11.38;5.57;;;;;;;23.65;75.99;100399.25;6184825;23;20032;-82
2022/07/20 05:29:31;;;;;;;7.88;4.90;;;;;;;23.75;75.96;100394.38;6184368;23;20008;-82
2022/07/20 05:31:56;;;;;;;9.93;5.85;;;;;;;23.78;74.79;100393.22;6158285;23;20012;-82
2022/07/20 05:34:22;;;;;;;11.82;5.70;;;;;;;23.67;75.73;100405.25;6183816;23;20008;-82
2022/07/20 05:36:47;;;;;;;13.48;6.32;;;;;;;23.78;75.52;100399.41;6184203;23;20009;-82
2022/07/20 05:39:12;;;;;;;9.73;5.93;;;;;;;23.70;75.20;100413.75;6184157;23;19997;-82
2022/07/20 05:41:38;;;;;;;10.23;5.47;;;;;;;23.91;74.17;100406.75;6183815;23;20001;-82
2022/07/20 05:44:03;;;;;;;10.05;5.78;;;;;;;23.79;75.61;100410.97;6184355;23;20012;-82
2022/07/20 05:46:28;;;;;;;10.07;5.57;;;;;;;23.75;75.52;100410.47;6184245;23;20371;-81
2022/07/20 05:48:54;;;;;;;6.47;5.18;;;;;;;23.88;74.98;100407.16;6183442;23;20059;-81
2022/07/20 05:51:19;;;;;;;11.40;5.80;;;;;;;23.94;73.42;100406.38;6183336;23;20005;-81
2022/07/20 05:53:45;;;;;;;10.63;5.72;;;;;;;23.73;74.48;100407.16;6156905;23;20008;-81
2022/07/20 05:56:10;;;;;;;8.20;5.53;;;;;;;23.71;75.16;100410.03;6183546;23;20001;-81
2022/07/20 05:58:35;;;;;;;7.28;5.30;;;;;;;23.80;74.28;100412.63;6156989;23;20324;-82
2022/07/20 06:01:01;;;;;;;9.63;5.93;;;;;;;23.85;73.42;100410.19;6185033;23;20006;-82
2022/07/20 06:03:26;;;;;;;7.28;4.80;;;;;;;23.95;74.13;100394.59;6185911;23;20011;-81
2022/07/20 06:05:51;;;;;;;11.52;5.45;;;;;;;23.90;73.48;100407.78;6185429;23;20001;-81
2022/07/20 06:08:17;;;;;;;8.13;5.30;;;;;;;23.95;73.51;100418.75;6158775;23;20005;-81
2022/07/20 06:10:42;;;;;;;8.68;5.25;;;;;;;24.17;73.47;100416.06;6159075;23;20005;-81
2022/07/20 06:13:08;;;;;;;12.20;6.03;;;;;;;24.08;72.73;100405.47;6185074;23;20017;-82
2022/07/20 06:15:33;;;;;;;11.90;5.15;;;;;;;24.14;72.63;100404.69;6184961;23;20304;-82
2022/07/20 06:17:59;;;;;;;10.25;5.30;;;;;;;24.31;72.59;100399.06;6183731;23;20005;-81
2022/07/20 06:20:24;;;;;;;8.02;5.35;;;;;;;24.32;71.88;100408.75;6184652;23;20005;-82
2022/07/20 06:22:50;;;;;;;10.32;5.55;;;;;;;24.44;71.42;100415.25;6184836;23;20551;-82
2022/07/20 06:25:18;;;;;;;8.40;4.68;;;;;;;24.54;71.78;100405.03;6183956;23;20372;-82
2022/07/20 06:27:44;;;;;;;7.70;5.53;;;;;;;24.49;70.64;100401.25;6158852;23;20015;-82
2022/07/20 06:30:11;;;;;;;8.00;4.93;;;;;;;24.58;69.95;100405.47;6182966;23;20027;-81
2022/07/20 06:32:37;;;;;;;7.30;5.22;;;;;;;24.40;70.29;100407.78;6185545;23;20028;-81
2022/07/20 06:35:04;;;;;;;12.45;5.50;;;;;;;24.49;70.46;100410.13;6184020;23;20015;-82
2022/07/20 06:37:29;;;;;;;12.77;5.88;;;;;;;24.57;69.91;100414.56;6153871;23;20005;-81
2022/07/20 06:39:55;;;;;;;10.60;5.88;;;;;;;24.52;69.89;100409.75;6179445;23;20036;-81
2022/07/20 06:42:20;;;;;;;8.05;5.20;;;;;;;24.63;68.80;100405.72;6153460;23;20320;-82
2022/07/20 06:44:46;;;;;;;12.32;6.05;;;;;;;24.72;69.01;100411.75;6179012;23;20012;-81
2022/07/20 06:47:13;;;;;;;10.52;5.15;;;;;;;24.73;69.22;100421.47;6179208;23;20011;-81
2022/07/20 06:49:39;;;;;;;10.23;5.00;;;;;;;24.69;68.96;100417.53;6152720;23;20039;-81
2022/07/20 06:52:05;;;;;;;9.90;5.68;;;;;;;24.71;69.54;100421.66;6179828;23;20009;-81
2022/07/20 06:54:30;;;;;;;8.77;5.30;;;;;;;24.64;68.66;100422.66;6179459;23;20009;-81
2022/07/20 06:56:56;;;;;;;11.88;5.38;;;;;;;24.80;68.35;100413.44;6152782;23;20013;-82
2022/07/20 06:59:22;;;;;;;9.73;5.10;;;;;;;24.84;68.14;100433.50;6177495;23;20012;-82
2022/07/20 07:01:48;;;;;;;8.65;5.85;;;;;;;24.72;68.94;100433.22;6152772;23;20012;-82
2022/07/20 07:04:13;;;;;;;9.27;5.15;;;;;;;24.77;68.86;100440.72;6179466;23;20009;-80
2022/07/20 07:06:39;;;;;;;10.02;5.47;;;;;;;24.65;68.53;100432.38;6180363;23;20036;-82
2022/07/20 07:09:05;;;;;;;12.10;5.88;;;;;;;24.47;68.89;100440.88;6183323;23;20040;-82
2022/07/20 07:11:30;;;;;;;8.95;5.50;;;;;;;24.57;68.79;100440.59;6184360;23;20439;-82
2022/07/20 07:13:56;;;;;;;8.98;5.20;;;;;;;24.69;68.59;100455.94;6183454;23;20424;-82
2022/07/20 07:16:21;;;;;;;11.60;5.43;;;;;;;24.80;68.23;100462.59;6183416;23;20339;-83
2022/07/20 07:18:47;;;;;;;10.43;5.32;;;;;;;24.60;68.71;100470.53;6182696;23;20035;-82
2022/07/20 07:21:13;;;;;;;10.07;5.55;;;;;;;24.66;70.16;100474.28;6184577;23;20005;-83
2022/07/20 07:23:38;;;;;;;9.30;5.38;;;;;;;24.69;70.40;100480.09;6182022;23;20375;-83
2022/07/20 07:26:04;;;;;;;12.90;5.22;;;;;;;24.65;68.82;100486.88;6183934;23;20036;-83
2022/07/20 07:28:31;;;;;;;10.20;5.60;;;;;;;24.62;69.83;100497.19;6184486;23;20083;-84
2022/07/20 07:30:56;;;;;;;9.57;5.43;;;;;;;24.52;69.38;100490.28;6182039;23;20032;-82
2022/07/20 07:33:25;;;;;;;9.07;5.10;;;;;;;24.51;69.48;100496.69;6183154;23;20001;-82
2022/07/20 07:35:52;;;;;;;8.43;5.05;;;;;;;24.68;70.28;100496.41;6184664;23;20001;-82
2022/07/20 07:38:17;;;;;;;11.07;5.20;;;;;;;24.78;69.45;100498.75;6184684;23;20012;-82
2022/07/20 07:40:42;;;;;;;11.40;5.60;;;;;;;24.76;68.52;100503.47;6184244;23;20001;-82
2022/07/20 07:43:08;;;;;;;9.85;5.18;;;;;;;24.82;68.01;100513.44;6184436;23;20012;-82
2022/07/20 07:45:33;;;;;;;11.20;5.22;;;;;;;24.73;67.99;100510.09;6184686;23;20012;-82
2022/07/20 07:47:59;;;;;;;7.85;4.85;;;;;;;24.65;67.99;100513.72;6183921;23;20043;-82
2022/07/20 07:50:24;;;;;;;14.13;6.47;;;;;;;24.58;67.62;100512.84;6183112;23;20005;-82
2022/07/20 07:52:50;;;;;;;9.90;6.10;;;;;;;24.60;68.69;100510.78;6184672;23;20420;-82
2022/07/20 07:55:15;;;;;;;8.25;5.80;;;;;;;24.64;68.80;100511.25;6184536;23;20070;-82
2022/07/20 07:57:41;;;;;;;11.63;5.35;;;;;;;24.70;69.58;100515.81;6184391;23;20005;-82
2022/07/20 08:00:08;;;;;;;12.02;6.05;;;;;;;24.67;68.82;100510.88;6183395;23;20443;-82
2022/07/20 08:02:33;;;;;;;13.20;5.97;;;;;;;24.48;68.92;100505.09;6184093;23;20009;-81
2022/07/20 08:04:58;;;;;;;9.82;5.85;;;;;;;24.75;70.10;100505.34;6183680;23;20157;-82
2022/07/20 08:07:24;;;;;;;13.18;5.72;;;;;;;24.72;68.70;100508.41;6182291;23;20001;-82
2022/07/20 08:09:49;;;;;;;12.23;5.30;;;;;;;24.91;67.64;100515.78;6184257;23;20008;-82
2022/07/20 08:12:14;;;;;;;7.13;4.85;;;;;;;25.10;66.56;100521.50;6184386;23;20004;-82
2022/07/20 08:14:40;;;;;;;8.55;5.40;;;;;;;25.14;66.53;100512.03;6184057;23;20009;-82
2022/07/20 08:17:05;;;;;;;11.00;5.47;;;;;;;25.09;65.78;100519.84;6182945;23;20009;-82
2022/07/20 08:19:30;;;;;;;8.93;5.32;;;;;;;25.09;66.02;100530.59;6184108;23;20320;-82
2022/07/20 08:21:56;;;;;;;10.18;5.45;;;;;;;25.04;65.89;100533.00;6183351;23;20083;-82
2022/07/20 08:24:21;;;;;;;11.32;6.38;;;;;;;25.26;65.47;100539.22;6184148;23;20012;-82
2022/07/20 08:26:47;;;;;;;11.70;6.47;;;;;;;25.31;66.24;100532.19;6183492;23;20446;-82
2022/07/20 08:29:12;;;;;;;9.68;5.80;;;;;;;25.22;65.31;100536.09;6157667;23;20003;-82
2022/07/20 08:31:37;;;;;;;8.07;5.60;;;;;;;25.42;65.08;100535.38;6184408;23;20005;-82
2022/07/20 08:34:03;;;;;;;10.40;5.80;;;;;;;25.40;64.32;100532.06;6184236;23;20427;-82
2022/07/20 08:36:28;;;;;;;10.15;5.45;;;;;;;25.43;64.41;100531.63;6183294;23;20028;-82
2022/07/20 08:38:53;;;;;;;10.80;6.05;;;;;;;25.50;64.80;100532.50;6183777;23;20055;-81
2022/07/20 08:41:21;;;;;;;7.72;5.28;;;;;;;25.71;63.68;100535.09;6184015;23;20024;-81
2022/07/20 08:43:46;;;;;;;12.73;5.40;;;;;;;25.77;62.89;100543.38;6184056;23;20001;-81
2022/07/20 08:46:12;;;;;;;7.82;5.68;;;;;;;26.03;62.83;100543.50;6183272;23;20008;-81
2022/07/20 08:48:41;;;;;;;12.77;6.05;;;;;;;26.03;62.20;100540.81;6184056;23;20001;-82
2022/07/20 08:51:06;;;;;;;11.95;6.70;;;;;;;26.27;61.29;100534.03;6182259;23;20005;-82
2022/07/20 08:53:31;;;;;;;7.63;5.90;;;;;;;26.41;60.85;100532.19;6183264;23;20016;-82
2022/07/20 08:55:57;;;;;;;10.68;5.70;;;;;;;26.49;60.97;100540.06;6183414;23;20439;-81
2022/07/20 08:58:22;;;;;;;7.53;5.07;;;;;;;26.89;59.77;100534.69;6184033;23;20001;-82
2022/07/20 09:00:47;;;;;;;13.43;6.63;;;;;;;26.94;57.67;100538.66;6183950;23;20032;-81
2022/07/20 09:03:13;;;;;;;8.27;6.00;;;;;;;27.03;58.02;100537.38;6183854;23;19997;-82
2022/07/20 09:05:40;;;;;;;13.35;6.10;;;;;;;27.45;56.16;100536.09;6184094;23;20005;-82
2022/07/20 09:08:10;;;;;;;9.80;5.90;;;;;;;27.48;55.49;100534.84;6157150;23;19997;-82
2022/07/20 09:10:37;;;;;;;11.15;6.30;;;;;;;27.48;55.12;100532.13;6183673;23;20404;-82
2022/07/20 09:13:06;;;;;;;10.48;6.45;;;;;;;27.49;55.68;100529.22;6184049;23;20033;-82
2022/07/20 09:15:49;;;;;;;9.27;5.82;;;;;;;28.18;54.70;100531.41;6184085;23;20381;-82
2022/07/20 09:18:24;;;;;;;7.22;5.53;;;;;;;28.45;53.31;100538.28;6183884;23;20001;-82
2022/07/20 09:21:01;;;;;;;7.85;5.72;;;;;;;28.92;52.54;100537.13;6183847;23;20005;-82
2022/07/20 09:23:31;;;;;;;11.27;6.40;;;;;;;28.97;50.32;100539.97;6156891;23;20009;-82
2022/07/20 09:26:06;;;;;;;8.15;6.10;;;;;;;29.89;48.21;100526.50;6183783;23;20059;-83
2022/07/20 09:28:47;;;;;;;11.38;6.32;;;;;;;30.93;46.30;100528.88;6183712;23;20009;-83
2022/07/20 09:31:14;;;;;;;;;;;;;;;30.63;46.15;100532.50;6183560;23;20059;-83
2022/07/20 09:33:47;;;;;;;11.40;6.05;;;;;;;30.88;46.20;100527.91;6183873;23;20290;-82
2022/07/20 09:36:14;;;;;;;18.67;6.57;;;;;;;30.78;44.92;100532.00;6185367;23;20024;-83
2022/07/20 09:38:41;;;;;;;10.65;6.22;;;;;;;30.48;46.48;100544.84;6185845;23;20044;-82
2022/07/20 09:41:25;;;;;;;8.07;5.95;;;;;;;30.04;46.54;100548.56;6185059;23;20009;-82
2022/07/20 09:43:51;;;;;;;11.40;6.20;;;;;;;30.09;45.67;100549.75;6185526;23;20008;-82
2022/07/20 09:46:22;;;;;;;8.52;6.03;;;;;;;30.00;46.75;100543.84;6184797;23;20001;-81
2022/07/20 09:48:55;;;;;;;;;;;;;;;30.10;46.29;100549.53;6184657;23;20336;-82
2022/07/20 09:51:27;;;;;;;10.48;6.55;;;;;;;30.31;46.73;100547.38;6185062;23;19967;-83
2022/07/20 09:53:59;;;;;;;13.38;6.80;;;;;;;29.97;46.63;100547.81;6185206;23;20040;-82
2022/07/20 09:56:26;;;;;;;7.65;6.03;;;;;;;30.15;46.55;100549.66;6185592;23;20016;-81
2022/07/20 09:58:54;;;;;;;8.27;5.95;;;;;;;29.95;47.14;100555.34;6185452;23;20016;-82
2022/07/20 10:01:25;;;;;;;9.48;6.35;;;;;;;29.46;47.24;100558.00;6185606;23;20005;-83
2022/07/20 10:03:58;;;;;;;10.60;6.40;;;;;;;29.40;47.75;100553.47;6184212;23;20005;-83
2022/07/20 10:06:25;;;;;;;10.40;6.38;;;;;;;28.97;48.11;100550.78;6185287;23;20005;-83
2022/07/20 10:08:52;;;;;;;10.75;6.80;;;;;;;28.78;48.96;100564.25;6185209;23;20001;-83
2022/07/20 10:11:22;;;;;;;11.75;7.20;;;;;;;27.93;50.56;100564.56;6185404;23;20432;-83
2022/07/20 10:13:48;;;;;;;8.38;6.57;;;;;;;27.79;51.24;100566.47;6185501;23;20011;-82
2022/07/20 10:16:39;;;;;;;9.82;6.75;;;;;;;27.23;52.90;100575.09;6185704;23;20012;-82
2022/07/20 10:19:06;;;;;;;10.88;6.43;;;;;;;27.27;53.07;100577.22;6184645;23;20009;-82
2022/07/20 10:21:36;;;;;;;10.77;7.28;;;;;;;27.12;53.66;100586.53;6185152;23;20008;-82
2022/07/20 10:24:30;;;;;;;9.63;6.53;;;;;;;27.44;53.21;100582.97;6185185;23;20100;-82
2022/07/20 10:27:02;;;;;;;7.72;6.47;;;;;;;27.17;54.33;100587.53;6185363;23;20036;-82
2022/07/20 10:29:31;;;;;;;;;;;;;;;27.12;54.74;100590.03;6184664;23;20075;-82
2022/07/20 10:32:14;;;;;;;9.80;6.80;;;;;;;27.05;54.81;100591.91;6184881;23;19956;-82
2022/07/20 10:34:50;;;;;;;12.75;7.25;;;;;;;27.07;54.59;100589.81;6185173;23;20028;-81
2022/07/20 10:37:24;;;;;;;10.45;6.60;;;;;;;26.99;55.72;100590.03;6185423;23;20108;-82
2022/07/20 10:40:22;;;;;;;10.18;7.75;;;;;;;26.85;55.98;100592.72;6185211;23;20051;-82
2022/07/20 10:42:53;;;;;;;8.20;6.03;;;;;;;26.93;56.40;100585.50;6158807;23;20009;-83
2022/07/20 10:45:19;;;;;;;9.63;7.03;;;;;;;26.93;56.55;100594.41;6183819;23;20048;-81
2022/07/20 10:47:44;;;;;;;9.73;6.22;;;;;;;26.71;56.57;100581.13;6184134;23;20446;-82
2022/07/20 10:50:31;;;;;;;11.25;7.45;;;;;;;26.81;56.87;100578.03;6184972;23;20005;-81
2022/07/20 10:53:18;;;;;;;11.52;6.80;;;;;;;26.81;57.09;100583.41;6184454;23;20092;-81
2022/07/20 10:55:58;;;;;;;12.05;6.85;;;;;;;26.91;56.77;100594.59;6183136;23;20088;-82
2022/07/20 10:58:36;;;;;;;8.73;6.23;;;;;;;26.86;56.98;100582.81;6184822;23;20028;-82
2022/07/20 11:01:05;;;;;;;9.30;6.50;;;;;;;26.88;56.29;100584.25;6184767;23;20001;-82
2022/07/20 11:03:38;;;;;;;12.20;6.32;;;;;;;26.98;56.10;100585.72;6184704;23;20027;-82
2022/07/20 11:06:05;;;;;;;11.70;6.20;;;;;;;26.75;56.85;100588.81;6184772;23;20032;-82
2022/07/20 11:08:30;;;;;;;13.27;6.90;;;;;;;26.72;57.18;100595.44;6184402;23;20371;-82
2022/07/20 11:10:56;;;;;;;10.43;7.07;;;;;;;26.75;57.00;100596.88;6184329;23;20077;-83
2022/07/20 11:13:22;;;;;;;7.60;6.15;;;;;;;26.95;56.60;100588.81;6184652;23;20001;-82
2022/07/20 11:15:51;;;;;;;11.50;6.95;;;;;;;26.68;57.39;100594.19;6184142;23;20025;-82
2022/07/20 11:18:19;;;;;;;10.70;7.28;;;;;;;26.82;57.24;100595.03;6184595;23;20081;-81